createdAt,value
2017-08-30T00:01:10.231Z,19.70
2017-08-30T00:03:37.665Z,19.70
2017-08-30T00:06:06.105Z,19.70
2017-08-30T00:08:33.545Z,19.70
2017-08-30T00:11:00.979Z,19.60
2017-08-30T00:13:28.436Z,19.60
2017-08-30T00:15:55.856Z,19.50
2017-08-30T00:18:23.293Z,19.50
2017-08-30T00:20:50.721Z,19.40
2017-08-30T00:23:18.164Z,19.50
2017-08-30T00:25:57.322Z,19.40
2017-08-30T00:28:24.759Z,19.50
2017-08-30T00:30:52.198Z,19.40
2017-08-30T00:33:20.627Z,19.30
2017-08-30T00:35:48.061Z,19.40
2017-08-30T00:38:15.493Z,19.40
2017-08-30T00:40:42.928Z,19.50
2017-08-30T00:43:10.366Z,19.40
2017-08-30T00:45:37.808Z,19.50
2017-08-30T00:48:05.239Z,19.50
2017-08-30T00:50:32.676Z,19.50
2017-08-30T00:53:00.108Z,19.50
2017-08-30T00:55:27.546Z,19.40
2017-08-30T00:57:55.802Z,19.50
2017-08-30T01:00:23.240Z,19.40
2017-08-30T01:02:50.671Z,19.40
2017-08-30T01:05:18.116Z,19.40
2017-08-30T01:07:45.539Z,19.50
2017-08-30T01:10:12.976Z,19.40
2017-08-30T01:12:40.404Z,19.30
2017-08-30T01:15:07.848Z,19.40
2017-08-30T01:17:35.275Z,19.40
2017-08-30T01:20:02.712Z,19.50
2017-08-30T01:22:30.144Z,19.40
2017-08-30T01:24:57.585Z,19.40
2017-08-30T01:27:25.016Z,19.40
2017-08-30T01:29:52.446Z,19.40
2017-08-30T01:32:19.882Z,19.40
2017-08-30T01:34:47.308Z,19.40
2017-08-30T01:37:14.749Z,19.30
2017-08-30T01:39:42.178Z,19.30
2017-08-30T01:42:09.741Z,19.30
2017-08-30T01:44:37.168Z,19.30
2017-08-30T01:47:04.608Z,19.30
2017-08-30T01:49:45.684Z,19.30
2017-08-30T01:52:13.141Z,19.20
2017-08-30T01:54:40.577Z,19.10
2017-08-30T01:57:11.684Z,19.20
2017-08-30T01:59:39.121Z,19.20
2017-08-30T02:02:06.552Z,19.20
2017-08-30T02:04:33.985Z,19.10
2017-08-30T02:07:01.426Z,19.10
2017-08-30T02:09:28.855Z,19.20
2017-08-30T02:11:56.325Z,19.10
2017-08-30T02:14:23.756Z,19.10
2017-08-30T02:16:51.195Z,19.10
2017-08-30T02:19:18.633Z,19.10
2017-08-30T02:21:46.073Z,19.10
2017-08-30T02:24:15.273Z,19.10
2017-08-30T02:26:42.718Z,19.10
2017-08-30T02:29:10.153Z,19.00
2017-08-30T02:31:37.592Z,19.00
2017-08-30T02:34:05.037Z,19.00
2017-08-30T02:36:32.497Z,19.00
2017-08-30T02:38:59.929Z,19.00
2017-08-30T02:41:28.366Z,19.00
2017-08-30T02:43:55.809Z,19.00
2017-08-30T02:46:23.269Z,19.00
2017-08-30T02:48:50.714Z,19.10
2017-08-30T02:51:18.145Z,19.00
2017-08-30T02:53:45.592Z,19.00
2017-08-30T02:56:13.113Z,19.00
2017-08-30T02:58:40.552Z,19.00
2017-08-30T03:01:07.982Z,19.00
2017-08-30T03:03:35.430Z,19.00
2017-08-30T03:06:06.628Z,18.90
2017-08-30T03:08:34.075Z,19.00
2017-08-30T03:11:01.508Z,19.00
2017-08-30T03:13:28.948Z,19.00
2017-08-30T03:15:56.380Z,19.00
2017-08-30T03:18:23.815Z,18.90
2017-08-30T03:20:51.258Z,18.90
2017-08-30T03:23:18.696Z,18.90
2017-08-30T03:25:46.131Z,18.80
2017-08-30T03:28:13.573Z,18.80
2017-08-30T03:30:41.010Z,18.80
2017-08-30T03:33:08.456Z,18.80
2017-08-30T03:35:36.917Z,18.80
2017-08-30T03:38:04.369Z,18.80
2017-08-30T03:40:31.806Z,18.80
2017-08-30T03:42:59.238Z,18.80
2017-08-30T03:45:26.671Z,18.80
2017-08-30T03:47:54.112Z,18.80
2017-08-30T03:50:21.553Z,18.80
2017-08-30T03:52:48.984Z,18.80
2017-08-30T03:55:16.502Z,18.80
2017-08-30T03:57:43.933Z,18.70
2017-08-30T04:00:11.368Z,18.70
2017-08-30T04:02:38.804Z,18.70
2017-08-30T04:05:06.247Z,18.70
2017-08-30T04:07:33.684Z,18.70
2017-08-30T04:10:01.138Z,18.70
2017-08-30T04:12:28.565Z,18.70
2017-08-30T04:14:56.013Z,18.70
2017-08-30T04:17:23.440Z,18.60
2017-08-30T04:19:50.888Z,18.60
2017-08-30T04:22:18.313Z,18.60
2017-08-30T04:24:45.752Z,18.60
2017-08-30T04:27:13.190Z,18.60
2017-08-30T04:29:40.647Z,18.60
2017-08-30T04:32:08.118Z,18.50
2017-08-30T04:34:35.554Z,18.50
2017-08-30T04:37:03.104Z,18.50
2017-08-30T04:39:30.544Z,18.50
2017-08-30T04:41:58.057Z,18.50
2017-08-30T04:44:25.489Z,18.50
2017-08-30T04:46:52.982Z,18.60
2017-08-30T04:49:20.408Z,18.60
2017-08-30T04:51:47.849Z,18.60
2017-08-30T04:54:15.285Z,18.50
2017-08-30T04:56:42.809Z,18.50
2017-08-30T04:59:10.236Z,18.60
2017-08-30T05:01:37.721Z,18.60
2017-08-30T05:04:05.149Z,18.60
2017-08-30T05:06:34.584Z,18.70
2017-08-30T05:09:02.020Z,18.70
2017-08-30T05:11:29.497Z,18.70
2017-08-30T05:13:56.936Z,18.70
2017-08-30T05:16:24.370Z,18.70
2017-08-30T05:18:51.849Z,18.70
2017-08-30T05:21:19.289Z,18.80
2017-08-30T05:23:46.726Z,18.80
2017-08-30T05:26:14.177Z,18.80
2017-08-30T05:28:41.612Z,18.80
2017-08-30T05:31:09.056Z,18.80
2017-08-30T05:33:36.488Z,18.80
2017-08-30T05:36:03.938Z,18.80
2017-08-30T05:38:31.373Z,18.90
2017-08-30T05:40:58.812Z,18.90
2017-08-30T05:43:26.270Z,19.00
2017-08-30T05:45:53.709Z,19.10
2017-08-30T05:48:21.149Z,19.10
2017-08-30T05:50:48.598Z,19.10
2017-08-30T05:53:16.045Z,19.20
2017-08-30T05:55:43.507Z,19.30
2017-08-30T05:58:10.992Z,19.30
2017-08-30T06:00:40.900Z,19.40
2017-08-30T06:03:08.342Z,19.40
2017-08-30T06:05:35.774Z,19.50
2017-08-30T06:08:05.204Z,19.50
2017-08-30T06:10:32.637Z,19.60
2017-08-30T06:13:00.086Z,19.70
2017-08-30T06:15:27.520Z,19.80
2017-08-30T06:17:54.983Z,19.90
2017-08-30T06:20:22.427Z,20.00
2017-08-30T06:22:49.869Z,20.00
2017-08-30T06:25:17.300Z,20.00
2017-08-30T06:27:44.744Z,20.00
2017-08-30T06:30:13.137Z,20.10
2017-08-30T06:32:40.573Z,20.10
2017-08-30T06:35:08.009Z,20.20
2017-08-30T06:37:35.477Z,20.40
2017-08-30T06:40:02.926Z,20.40
2017-08-30T06:42:30.365Z,20.50
2017-08-30T06:44:58.829Z,20.50
2017-08-30T06:47:26.274Z,20.40
2017-08-30T06:49:53.724Z,20.60
2017-08-30T06:52:21.159Z,20.70
2017-08-30T06:54:48.617Z,20.80
2017-08-30T06:57:16.057Z,21.00
2017-08-30T06:59:44.488Z,21.20
2017-08-30T07:02:13.971Z,21.40
2017-08-30T07:04:43.387Z,21.50
2017-08-30T07:07:10.830Z,21.60
2017-08-30T07:09:46.579Z,21.60
2017-08-30T07:12:14.013Z,21.80
2017-08-30T07:14:45.617Z,21.90
2017-08-30T07:17:13.165Z,22.10
2017-08-30T07:19:40.631Z,22.30
2017-08-30T07:22:08.074Z,22.40
2017-08-30T07:24:35.562Z,22.70
2017-08-30T07:27:07.689Z,22.90
2017-08-30T07:29:35.137Z,23.00
2017-08-30T07:32:02.568Z,23.20
2017-08-30T07:34:33.637Z,23.40
2017-08-30T07:37:01.080Z,23.50
2017-08-30T07:39:28.523Z,23.60
2017-08-30T07:42:03.355Z,23.80
2017-08-30T07:44:30.796Z,24.00
2017-08-30T07:46:58.234Z,24.00
2017-08-30T07:49:25.685Z,24.00
2017-08-30T07:51:53.120Z,24.10
2017-08-30T07:54:20.564Z,24.20
2017-08-30T07:56:47.992Z,24.30
2017-08-30T07:59:15.441Z,23.90
2017-08-30T08:01:55.872Z,24.00
2017-08-30T08:04:23.317Z,24.10
2017-08-30T08:06:50.749Z,24.50
2017-08-30T08:09:18.184Z,24.90
2017-08-30T08:11:45.645Z,25.30
2017-08-30T08:14:13.093Z,25.80
2017-08-30T08:16:40.535Z,26.20
2017-08-30T08:19:07.977Z,26.60
2017-08-30T08:21:35.441Z,26.60
2017-08-30T08:24:02.870Z,26.80
2017-08-30T08:26:30.312Z,27.10
2017-08-30T08:28:57.740Z,27.50
2017-08-30T08:31:25.184Z,27.60
2017-08-30T08:33:52.627Z,27.70
2017-08-30T08:36:20.063Z,27.30
2017-08-30T08:38:47.502Z,27.30
2017-08-30T08:41:14.963Z,27.40
2017-08-30T08:43:42.400Z,27.50
2017-08-30T08:46:09.864Z,27.40
2017-08-30T08:48:37.293Z,27.60
2017-08-30T08:51:04.741Z,27.70
2017-08-30T08:53:32.178Z,27.70
2017-08-30T08:55:59.620Z,28.00
2017-08-30T08:58:27.057Z,28.40
2017-08-30T09:00:54.506Z,28.60
2017-08-30T09:03:21.944Z,28.80
2017-08-30T09:05:49.377Z,29.00
2017-08-30T09:08:16.834Z,29.10
2017-08-30T09:10:44.279Z,29.30
2017-08-30T09:13:11.732Z,29.50
2017-08-30T09:15:40.174Z,29.60
2017-08-30T09:18:07.612Z,29.60
2017-08-30T09:20:35.052Z,29.60
2017-08-30T09:23:02.502Z,29.60
2017-08-30T09:25:29.928Z,29.70
2017-08-30T09:27:57.364Z,29.70
2017-08-30T09:30:24.913Z,29.80
2017-08-30T09:32:52.350Z,29.70
2017-08-30T09:35:19.788Z,29.80
2017-08-30T09:37:47.301Z,29.80
2017-08-30T09:40:14.747Z,29.80
2017-08-30T09:42:42.188Z,29.70
2017-08-30T09:45:11.705Z,29.60
2017-08-30T09:47:39.146Z,29.50
2017-08-30T09:50:06.586Z,29.50
2017-08-30T09:52:34.033Z,29.40
2017-08-30T09:55:01.470Z,29.50
2017-08-30T09:57:28.908Z,29.50
2017-08-30T09:59:56.341Z,29.50
2017-08-30T10:02:23.784Z,29.50
2017-08-30T10:04:53.296Z,29.60
2017-08-30T10:07:20.728Z,29.50
2017-08-30T10:09:48.241Z,29.70
2017-08-30T10:12:15.670Z,30.00
2017-08-30T10:14:43.109Z,29.80
2017-08-30T10:17:10.549Z,30.00
2017-08-30T10:19:37.996Z,30.10
2017-08-30T10:22:05.505Z,30.20
2017-08-30T10:24:32.941Z,30.30
2017-08-30T10:27:00.376Z,30.50
2017-08-30T10:29:27.828Z,30.50
2017-08-30T10:31:55.260Z,30.70
2017-08-30T10:34:22.709Z,30.90
2017-08-30T10:36:50.142Z,31.00
2017-08-30T10:39:17.779Z,31.20
2017-08-30T10:41:45.312Z,31.30
2017-08-30T10:44:12.832Z,31.50
2017-08-30T10:46:40.271Z,31.70
2017-08-30T10:49:07.715Z,31.50
2017-08-30T10:51:35.153Z,31.40
2017-08-30T10:54:02.603Z,31.20
2017-08-30T10:56:30.032Z,31.10
2017-08-30T10:58:57.486Z,31.00
2017-08-30T11:01:24.929Z,31.20
2017-08-30T11:03:52.384Z,31.30
2017-08-30T11:06:19.820Z,31.50
2017-08-30T11:08:47.259Z,31.60
2017-08-30T11:11:14.694Z,31.80
2017-08-30T11:13:42.155Z,31.80
2017-08-30T11:16:09.596Z,32.00
2017-08-30T11:18:37.023Z,32.10
2017-08-30T11:21:04.468Z,32.30
2017-08-30T11:23:31.911Z,32.40
2017-08-30T11:25:59.348Z,32.30
2017-08-30T11:28:26.798Z,32.20
2017-08-30T11:30:54.300Z,32.10
2017-08-30T11:33:21.753Z,32.00
2017-08-30T11:35:49.184Z,32.00
2017-08-30T11:38:16.623Z,32.10
2017-08-30T11:40:44.063Z,32.00
2017-08-30T11:43:11.502Z,31.90
2017-08-30T11:45:38.941Z,32.10
2017-08-30T11:48:06.372Z,32.10
2017-08-30T11:50:33.816Z,32.10
2017-08-30T11:53:01.253Z,32.00
2017-08-30T11:55:28.693Z,31.90
2017-08-30T11:57:56.120Z,31.80
2017-08-30T12:00:23.580Z,31.60
2017-08-30T12:02:50.988Z,31.80
2017-08-30T12:05:18.485Z,31.90
2017-08-30T12:07:45.920Z,31.90
2017-08-30T12:10:13.357Z,31.70
2017-08-30T12:12:40.796Z,31.60
2017-08-30T12:15:08.225Z,31.50
2017-08-30T12:17:39.794Z,31.50
2017-08-30T12:20:07.226Z,31.30
2017-08-30T12:22:34.657Z,31.30
2017-08-30T12:25:02.093Z,31.20
2017-08-30T12:27:29.537Z,31.10
2017-08-30T12:29:56.965Z,31.10
2017-08-30T12:32:24.405Z,31.10
2017-08-30T12:34:51.832Z,31.10
2017-08-30T12:37:24.868Z,31.00
2017-08-30T12:39:52.302Z,31.10
2017-08-30T12:42:19.732Z,31.20
2017-08-30T12:44:47.168Z,31.40
2017-08-30T12:47:14.605Z,31.40
2017-08-30T12:49:42.033Z,31.40
2017-08-30T12:52:09.469Z,31.40
2017-08-30T12:54:36.900Z,31.30
2017-08-30T12:57:04.336Z,31.20
2017-08-30T12:59:31.772Z,31.20
2017-08-30T13:01:59.208Z,31.20
2017-08-30T13:04:26.641Z,31.20
2017-08-30T13:06:54.071Z,31.10
2017-08-30T13:09:21.496Z,31.10
2017-08-30T13:11:48.942Z,31.10
2017-08-30T13:14:16.375Z,31.00
2017-08-30T13:16:43.804Z,31.00
2017-08-30T13:19:11.248Z,31.10
2017-08-30T13:21:38.681Z,31.10
2017-08-30T13:24:06.114Z,31.00
2017-08-30T13:26:33.540Z,31.10
2017-08-30T13:29:00.990Z,30.90
2017-08-30T13:31:28.421Z,30.80
2017-08-30T13:33:55.856Z,30.70
2017-08-30T13:36:23.285Z,30.60
2017-08-30T13:38:50.769Z,30.40
2017-08-30T13:41:18.201Z,30.40
2017-08-30T13:43:45.631Z,30.30
2017-08-30T13:46:13.066Z,30.30
2017-08-30T13:48:40.505Z,30.20
2017-08-30T13:51:08.146Z,30.30
2017-08-30T13:53:35.583Z,30.20
2017-08-30T13:56:03.012Z,30.30
2017-08-30T13:58:30.453Z,30.30
2017-08-30T14:00:57.880Z,30.40
2017-08-30T14:03:25.329Z,30.30
2017-08-30T14:05:52.757Z,30.30
2017-08-30T14:08:20.195Z,30.30
2017-08-30T14:10:47.640Z,30.20
2017-08-30T14:13:15.060Z,30.20
2017-08-30T14:15:42.491Z,30.30
2017-08-30T14:18:09.939Z,30.20
2017-08-30T14:20:37.377Z,30.10
2017-08-30T14:23:04.804Z,29.90
2017-08-30T14:25:32.237Z,29.90
2017-08-30T14:27:59.665Z,29.90
2017-08-30T14:30:27.103Z,29.80
2017-08-30T14:32:54.537Z,29.70
2017-08-30T14:35:21.977Z,29.70
2017-08-30T14:37:49.405Z,29.60
2017-08-30T14:40:16.844Z,29.60
2017-08-30T14:42:44.268Z,29.60
2017-08-30T14:45:11.704Z,29.50
2017-08-30T14:47:39.136Z,29.50
2017-08-30T14:50:06.578Z,29.50
2017-08-30T14:52:36.010Z,29.50
2017-08-30T14:55:03.449Z,29.30
2017-08-30T14:57:30.876Z,29.30
2017-08-30T14:59:59.317Z,29.20
2017-08-30T15:02:41.031Z,29.20
2017-08-30T15:05:08.699Z,29.20
2017-08-30T15:07:39.224Z,29.10
2017-08-30T15:10:06.664Z,29.00
2017-08-30T15:12:36.229Z,29.00
2017-08-30T15:15:03.660Z,28.90
2017-08-30T15:17:31.092Z,28.90
2017-08-30T15:19:58.511Z,28.80
2017-08-30T15:22:27.932Z,28.80
2017-08-30T15:24:55.360Z,28.70
2017-08-30T15:27:24.799Z,28.50
2017-08-30T15:29:52.233Z,28.50
2017-08-30T15:32:19.674Z,28.30
2017-08-30T15:34:47.117Z,28.40
2017-08-30T15:37:14.554Z,28.30
2017-08-30T15:39:41.981Z,28.30
2017-08-30T15:42:09.427Z,28.30
2017-08-30T15:44:39.183Z,28.30
2017-08-30T15:47:06.616Z,28.30
2017-08-30T15:49:34.897Z,28.30
2017-08-30T15:52:02.341Z,28.30
2017-08-30T15:54:29.769Z,28.20
2017-08-30T15:56:57.216Z,28.20
2017-08-30T15:59:24.646Z,28.10
2017-08-30T16:01:52.080Z,28.10
2017-08-30T16:04:19.513Z,27.90
2017-08-30T16:06:46.941Z,27.80
2017-08-30T16:09:15.733Z,27.80
2017-08-30T16:11:43.218Z,27.70
2017-08-30T16:14:11.196Z,27.50
2017-08-30T16:16:38.742Z,27.50
2017-08-30T16:19:06.217Z,27.50
2017-08-30T16:21:33.668Z,27.50
2017-08-30T16:24:01.116Z,27.40
2017-08-30T16:26:28.537Z,27.40
2017-08-30T16:28:55.980Z,27.30
2017-08-30T16:31:23.421Z,27.30
2017-08-30T16:33:50.957Z,27.20
2017-08-30T16:36:18.396Z,27.20
2017-08-30T16:38:45.832Z,27.10
2017-08-30T16:41:21.787Z,26.90
2017-08-30T16:43:49.221Z,26.90
2017-08-30T16:46:16.681Z,26.80
2017-08-30T16:48:45.104Z,26.80
2017-08-30T16:51:12.533Z,26.90
2017-08-30T16:53:39.992Z,26.90
2017-08-30T16:56:07.422Z,26.90
2017-08-30T16:58:35.266Z,26.90
2017-08-30T17:01:02.689Z,26.90
2017-08-30T17:03:30.133Z,26.90
2017-08-30T17:05:57.601Z,26.80
2017-08-30T17:08:25.036Z,26.90
2017-08-30T17:10:52.513Z,26.80
2017-08-30T17:13:19.960Z,26.80
2017-08-30T17:15:47.404Z,26.70
2017-08-30T17:18:14.854Z,26.80
2017-08-30T17:20:42.341Z,26.60
2017-08-30T17:23:09.780Z,26.50
2017-08-30T17:25:37.223Z,26.40
2017-08-30T17:28:04.668Z,26.30
2017-08-30T17:30:32.121Z,26.20
2017-08-30T17:33:05.477Z,26.20
2017-08-30T17:35:32.916Z,26.10
2017-08-30T17:38:00.341Z,26.00
2017-08-30T17:40:27.795Z,26.00
2017-08-30T17:42:55.242Z,26.10
2017-08-30T17:45:22.669Z,26.10
2017-08-30T17:47:50.109Z,26.10
2017-08-30T17:50:17.570Z,26.00
2017-08-30T17:52:45.001Z,26.00
2017-08-30T17:55:12.448Z,25.90
2017-08-30T17:57:39.957Z,25.90
2017-08-30T18:00:07.405Z,25.80
2017-08-30T18:02:34.833Z,25.80
2017-08-30T18:05:02.287Z,25.80
2017-08-30T18:07:29.729Z,25.60
2017-08-30T18:09:57.160Z,25.60
2017-08-30T18:12:24.592Z,25.60
2017-08-30T18:14:52.030Z,25.40
2017-08-30T18:17:19.488Z,25.40
2017-08-30T18:19:46.942Z,25.40
2017-08-30T18:22:14.368Z,25.40
2017-08-30T18:24:41.805Z,25.40
2017-08-30T18:27:09.249Z,25.40
2017-08-30T18:29:36.687Z,25.30
2017-08-30T18:32:04.136Z,25.30
2017-08-30T18:34:31.569Z,25.20
2017-08-30T18:36:59.009Z,25.10
2017-08-30T18:39:26.447Z,25.10
2017-08-30T18:41:53.893Z,25.00
2017-08-30T18:44:21.325Z,25.00
2017-08-30T18:46:48.777Z,24.90
2017-08-30T18:49:16.203Z,24.80
2017-08-30T18:51:43.697Z,24.80
2017-08-30T18:54:11.133Z,24.70
2017-08-30T18:56:38.573Z,24.60
2017-08-30T18:59:06.005Z,24.60
2017-08-30T19:01:33.457Z,24.50
2017-08-30T19:04:00.907Z,24.50
2017-08-30T19:06:28.344Z,24.50
2017-08-30T19:08:55.780Z,24.40
2017-08-30T19:11:23.225Z,24.30
2017-08-30T19:13:50.644Z,24.30
2017-08-30T19:16:18.084Z,24.30
2017-08-30T19:18:46.814Z,24.30
2017-08-30T19:21:15.972Z,24.30
2017-08-30T19:23:45.149Z,24.30
2017-08-30T19:26:13.343Z,24.20
2017-08-30T19:28:42.582Z,24.20
2017-08-30T19:31:11.779Z,24.20
2017-08-30T19:33:40.656Z,24.10
2017-08-30T19:36:10.825Z,24.10
2017-08-30T19:38:40.946Z,24.10
2017-08-30T19:41:10.885Z,24.10
2017-08-30T19:43:41.312Z,24.00
2017-08-30T19:46:11.428Z,24.00
2017-08-30T19:48:39.380Z,24.00
2017-08-30T19:51:08.735Z,24.00
2017-08-30T19:53:37.468Z,24.10
2017-08-30T19:56:07.818Z,24.10
2017-08-30T19:58:35.862Z,24.00
2017-08-30T20:01:03.995Z,24.00
2017-08-30T20:03:32.904Z,24.00
2017-08-30T20:06:01.459Z,24.10
2017-08-30T20:08:29.735Z,24.10
2017-08-30T20:10:57.912Z,24.00
2017-08-30T20:13:27.571Z,24.10
2017-08-30T20:15:58.937Z,24.00
2017-08-30T20:18:28.263Z,24.00
2017-08-30T20:20:56.744Z,24.00
2017-08-30T20:23:25.027Z,24.00
2017-08-30T20:25:53.807Z,24.10
2017-08-30T20:28:22.082Z,24.00
2017-08-30T20:30:50.408Z,24.10
2017-08-30T20:33:19.431Z,24.00
2017-08-30T20:35:47.830Z,24.00
2017-08-30T20:38:20.176Z,23.90
2017-08-30T20:40:48.835Z,23.90
2017-08-30T20:43:17.477Z,23.80
2017-08-30T20:45:46.346Z,23.80
2017-08-30T20:48:17.906Z,23.80
2017-08-30T20:50:48.081Z,23.70
2017-08-30T20:53:16.927Z,23.70
2017-08-30T20:55:45.174Z,23.70
2017-08-30T20:58:13.573Z,23.50
2017-08-30T21:00:43.588Z,23.60
2017-08-30T21:03:12.360Z,23.30
2017-08-30T21:05:40.754Z,23.30
2017-08-30T21:08:09.644Z,23.30
2017-08-30T21:10:38.586Z,23.20
2017-08-30T21:13:06.912Z,23.10
2017-08-30T21:15:35.289Z,23.10
2017-08-30T21:18:03.695Z,23.00
2017-08-30T21:20:32.039Z,23.00
2017-08-30T21:23:02.164Z,22.90
2017-08-30T21:25:31.519Z,22.90
2017-08-30T21:28:00.354Z,22.90
2017-08-30T21:30:29.040Z,22.90
2017-08-30T21:32:59.006Z,23.00
2017-08-30T21:35:28.762Z,23.00
2017-08-30T21:37:58.014Z,23.00
2017-08-30T21:40:28.641Z,23.00
2017-08-30T21:43:11.716Z,23.00
2017-08-30T21:48:25.884Z,22.80
2017-08-30T21:50:54.362Z,22.80
2017-08-30T21:53:22.689Z,22.80
2017-08-30T21:55:52.091Z,22.80
2017-08-30T21:58:20.264Z,22.70
2017-08-30T22:00:50.383Z,22.60
2017-08-30T22:03:22.046Z,22.60
2017-08-30T22:05:52.062Z,22.60
2017-08-30T22:08:22.378Z,22.50
2017-08-30T22:10:52.087Z,22.40
2017-08-30T22:13:21.181Z,22.30
2017-08-30T22:15:49.003Z,22.20
2017-08-30T22:18:18.508Z,22.00
2017-08-30T22:20:46.784Z,21.90
2017-08-30T22:23:15.265Z,21.80
2017-08-30T22:25:43.584Z,21.80
2017-08-30T22:28:12.022Z,21.70
2017-08-30T22:30:40.714Z,21.80
2017-08-30T22:33:14.514Z,21.70
2017-08-30T22:35:44.469Z,21.80
2017-08-30T22:38:12.910Z,21.80
2017-08-30T22:40:40.980Z,21.80
2017-08-30T22:43:09.974Z,21.80
2017-08-30T22:45:39.581Z,21.80
2017-08-30T22:48:10.045Z,21.80
2017-08-30T22:50:39.349Z,21.80
2017-08-30T22:53:08.766Z,21.80
2017-08-30T22:55:40.913Z,21.80
2017-08-30T22:58:09.394Z,21.80
2017-08-30T23:00:37.649Z,21.80
2017-08-30T23:03:06.681Z,21.90
2017-08-30T23:05:35.263Z,21.90
2017-08-30T23:08:05.954Z,21.80
2017-08-30T23:10:34.356Z,21.80
2017-08-30T23:13:02.853Z,21.80
2017-08-30T23:15:35.740Z,21.80
2017-08-30T23:18:04.320Z,21.70
2017-08-30T23:20:32.646Z,21.70
2017-08-30T23:23:01.075Z,21.70
2017-08-30T23:25:31.720Z,21.70
2017-08-30T23:28:00.903Z,21.70
2017-08-30T23:30:31.534Z,21.70
2017-08-30T23:33:01.038Z,21.70
2017-08-30T23:35:29.210Z,21.60
2017-08-30T23:37:58.511Z,21.60
2017-08-30T23:40:27.604Z,21.70
2017-08-30T23:42:56.961Z,21.70
2017-08-30T23:45:26.204Z,21.60
2017-08-30T23:47:54.566Z,21.70
2017-08-30T23:50:23.984Z,21.60
2017-08-30T23:52:55.970Z,21.60
2017-08-30T23:55:26.099Z,21.60
2017-08-30T23:57:54.544Z,21.50
